Time;durP1;ratioP1;P1;durP2;ratioP2;P2;SDS_P1;SDS_P2;PMS_P1;PMS_P2;Temp;Humidity;BMP_temperature;BMP_pressure;BME280_temperature;BME280_humidity;BME280_pressure;Samples;Min_cycle;Max_cycle;Signal;HPM_P1;HPM_P2
2022/03/12 00:00:13;;;;;;;7.37;5.70;;;-4.30;87.90;-5.20;97926.00;;;;4952108;28;20863;-67
2022/03/12 00:03:02;;;;;;;5.03;4.27;;;-4.50;88.80;-5.70;97918.00;;;;4947773;29;20432;-64
2022/03/12 00:05:53;;;;;;;13.63;7.43;;;-4.70;89.70;-5.00;97924.00;;;;4953595;28;20603;-64
2022/03/12 00:08:43;;;;;;;9.77;6.93;;;-4.70;90.00;-4.80;97929.00;;;;4951206;29;20435;-64
2022/03/12 00:11:34;;;;;;;13.77;7.77;;;-4.70;90.20;-4.60;97942.00;;;;4951434;29;20215;-64
2022/03/12 00:14:26;;;;;;;6.07;5.10;;;-4.50;90.10;-4.50;97930.00;;;;4951942;29;20480;-64
2022/03/12 00:17:15;;;;;;;10.30;6.27;;;-4.50;89.80;-4.50;97933.00;;;;4950819;29;20424;-64
2022/03/12 00:20:12;;;;;;;7.47;5.70;;;-4.50;90.00;-4.80;97931.00;;;;4952120;29;20881;-64
2022/03/12 00:23:02;;;;;;;13.83;7.43;;;-4.50;89.40;-4.50;97932.00;;;;4944593;29;20951;-64
2022/03/12 00:25:51;;;;;;;6.60;5.80;;;-4.50;89.80;-5.30;97924.00;;;;4952457;28;20462;-64
2022/03/12 00:28:42;;;;;;;11.13;6.23;;;-4.60;89.30;-5.80;97913.00;;;;4952612;28;20439;-64
2022/03/12 00:31:31;;;;;;;10.80;8.20;;;-4.80;90.20;-5.30;97930.00;;;;4951193;29;20428;-64
2022/03/12 00:34:20;;;;;;;9.70;6.40;;;-4.80;90.50;-5.10;97934.00;;;;4942920;29;20475;-67
2022/03/12 00:37:09;;;;;;;6.80;5.77;;;-4.80;90.60;-4.90;97930.00;;;;4945180;29;20520;-67
2022/03/12 00:39:58;;;;;;;9.57;7.47;;;-4.80;90.60;-4.80;97927.00;;;;4943881;28;20439;-67
2022/03/12 00:42:47;;;;;;;8.13;7.33;;;-4.80;90.30;-5.00;97932.00;;;;4950119;29;20424;-67
2022/03/12 00:45:37;;;;;;;12.37;7.23;;;-4.70;90.20;-5.30;97926.00;;;;4951272;29;20448;-67
2022/03/12 00:48:26;;;;;;;7.27;5.73;;;-4.90;90.50;-5.80;97922.00;;;;4951743;29;20451;-67
2022/03/12 00:51:27;;;;;;;8.70;6.17;;;-5.10;90.50;-6.00;97915.00;;;;4951637;28;20474;-67
2022/03/12 00:54:16;;;;;;;6.43;4.35;;;-5.10;91.10;-6.40;97911.00;;;;4950806;29;20986;-67
2022/03/12 00:57:05;;;;;;;6.15;4.88;;;-5.30;91.20;-6.40;97905.00;;;;4951489;29;20200;-67
2022/03/12 00:59:54;;;;;;;12.68;7.43;;;-5.40;91.70;-6.30;97908.00;;;;4952252;28;20664;-67
2022/03/12 01:02:45;;;;;;;7.78;6.57;;;-5.50;91.90;-5.70;97909.00;;;;4950759;29;20243;-67
2022/03/12 01:05:53;;;;;;;8.05;6.20;;;-5.50;92.20;-5.50;97910.00;;;;4940637;28;20230;-67
2022/03/12 01:08:42;;;;;;;9.18;6.97;;;-5.40;92.30;-5.30;97908.00;;;;4950968;28;20207;-67
2022/03/12 01:11:31;;;;;;;9.70;6.03;;;-5.30;92.20;-5.80;97901.00;;;;4950686;28;20211;-67
2022/03/12 01:14:20;;;;;;;7.43;5.55;;;-5.30;91.80;-6.40;97903.00;;;;4954292;29;20592;-67
2022/03/12 01:17:08;;;;;;;9.90;5.93;;;-5.40;91.90;-6.20;97898.00;;;;4957716;28;20230;-67
2022/03/12 01:20:02;;;;;;;7.63;6.60;;;-5.50;92.00;-5.90;97898.00;;;;4955104;29;20219;-67
2022/03/12 01:22:51;;;;;;;7.63;6.20;;;-5.50;92.20;-5.80;97899.00;;;;4954048;29;20222;-67
2022/03/12 01:25:41;;;;;;;8.95;6.53;;;-5.50;92.30;-5.70;97905.00;;;;4955057;28;20715;-67
2022/03/12 01:28:30;;;;;;;10.80;6.55;;;-5.50;92.20;-5.40;97904.00;;;;4944038;29;20675;-67
2022/03/12 01:31:19;;;;;;;8.35;6.75;;;-5.40;92.30;-5.90;97895.00;;;;4954490;28;20208;-67
2022/03/12 01:34:08;;;;;;;8.43;5.97;;;-5.40;91.90;-6.30;97893.00;;;;4945716;29;20312;-64
2022/03/12 01:36:58;;;;;;;10.70;7.18;;;-5.60;91.90;-6.00;97908.00;;;;4947999;28;20218;-64
2022/03/12 01:39:48;;;;;;;7.07;6.38;;;-5.60;92.10;-5.80;97893.00;;;;4948416;29;20203;-64
2022/03/12 01:42:37;;;;;;;6.35;5.75;;;-5.60;92.20;-6.00;97893.00;;;;4954294;28;20235;-67
2022/03/12 01:45:28;;;;;;;8.32;6.35;;;-5.60;92.10;-5.90;97892.00;;;;4954652;29;20251;-67
2022/03/12 01:48:17;;;;;;;8.25;5.72;;;-5.60;92.10;-5.90;97903.00;;;;4955305;28;20204;-67
2022/03/12 01:51:06;;;;;;;7.97;6.15;;;-5.60;92.20;-6.20;97886.00;;;;4955960;28;20579;-67
2022/03/12 01:53:56;;;;;;;8.60;5.13;;;-5.70;92.10;-6.70;97882.00;;;;4946335;29;20223;-67
2022/03/12 01:56:45;;;;;;;4.70;4.38;;;-5.90;92.30;-6.80;97877.00;;;;4945800;29;20687;-67
2022/03/12 01:59:34;;;;;;;7.57;4.88;;;-6.00;92.60;-6.80;97876.00;;;;4949304;29;20208;-67
2022/03/12 02:02:23;;;;;;;4.35;3.85;;;-6.10;92.80;-7.00;97873.00;;;;4954712;28;20672;-67
2022/03/12 02:05:18;;;;;;;9.90;5.75;;;-6.20;93.00;-6.90;97881.00;;;;4953707;29;20220;-67
2022/03/12 02:08:13;;;;;;;7.70;5.10;;;-6.30;93.30;-7.10;97876.00;;;;4955701;28;20208;-67
2022/03/12 02:11:05;;;;;;;8.15;6.05;;;-6.30;93.30;-7.00;97866.00;;;;4947346;29;20688;-67
2022/03/12 02:14:00;;;;;;;7.60;5.72;;;-6.40;93.70;-6.90;97870.00;;;;4954127;29;20735;-67
2022/03/12 02:16:52;;;;;;;4.07;3.47;;;-6.40;94.10;-6.80;97877.00;;;;4953847;29;20208;-67
2022/03/12 02:19:42;;;;;;;3.35;3.08;;;-6.40;94.20;-7.10;97860.00;;;;4953487;28;20204;-67
2022/03/12 02:22:31;;;;;;;5.63;4.93;;;-6.40;93.80;-7.50;97865.00;;;;4952566;29;20204;-66
2022/03/12 02:25:28;;;;;;;3.15;2.58;;;-6.50;93.70;-7.60;97860.00;;;;4953725;28;20220;-67
2022/03/12 02:28:19;;;;;;;2.35;1.63;;;-6.60;93.80;-7.60;97865.00;;;;4953857;28;20208;-67
2022/03/12 02:31:09;;;;;;;1.33;1.33;;;-6.60;94.50;-7.80;97852.00;;;;4955625;28;20214;-67
2022/03/12 02:34:02;;;;;;;9.88;5.88;;;-6.70;94.80;-7.10;97869.00;;;;4944291;29;20723;-67
2022/03/12 02:36:52;;;;;;;7.22;4.30;;;-6.70;95.10;-7.10;97866.00;;;;4952737;28;20199;-67
2022/03/12 02:39:41;;;;;;;7.38;5.60;;;-6.60;94.80;-7.10;97866.00;;;;4947285;29;20208;-67
2022/03/12 02:42:35;;;;;;;5.45;4.75;;;-6.60;94.60;-7.00;97873.00;;;;4953441;29;20200;-67
2022/03/12 02:45:26;;;;;;;6.82;5.18;;;-6.60;94.50;-7.50;97865.00;;;;4953733;28;20244;-67
2022/03/12 02:48:15;;;;;;;6.13;4.85;;;-6.70;94.50;-7.50;97861.00;;;;4953821;29;20196;-67
2022/03/12 02:51:05;;;;;;;6.65;4.50;;;-6.80;94.50;-7.30;97867.00;;;;4953767;29;20204;-67
2022/03/12 02:53:56;;;;;;;4.95;4.50;;;-6.80;94.70;-7.10;97862.00;;;;4954344;28;20223;-66
2022/03/12 02:56:45;;;;;;;9.93;6.32;;;-6.80;95.00;-7.30;97868.00;;;;4953592;29;20250;-66
2022/03/12 02:59:35;;;;;;;6.82;3.67;;;-6.80;94.70;-7.60;97863.00;;;;4952578;29;20200;-67
2022/03/12 03:02:28;;;;;;;7.75;4.68;;;-6.90;94.70;-7.10;97880.00;;;;4953041;29;20212;-67
2022/03/12 03:05:39;;;;;;;6.63;5.28;;;-6.90;94.80;-7.00;97866.00;;;;4953687;28;20231;-67
2022/03/12 03:08:28;;;;;;;5.00;3.65;;;-6.80;95.00;-7.00;97870.00;;;;4953328;29;20607;-67
2022/03/12 03:11:18;;;;;;;8.10;4.63;;;-6.70;94.50;-7.10;97872.00;;;;4947771;29;20211;-67
2022/03/12 03:14:12;;;;;;;5.13;4.60;;;-6.70;94.20;-6.80;97871.00;;;;4952772;29;20236;-67
2022/03/12 03:17:04;;;;;;;3.47;2.63;;;-6.60;94.00;-7.40;97869.00;;;;4952134;29;20210;-67
2022/03/12 03:19:53;;;;;;;4.07;2.70;;;-6.60;93.70;-8.10;97865.00;;;;4951261;28;20211;-67
2022/03/12 03:22:42;;;;;;;1.35;1.33;;;-6.80;94.00;-8.10;97864.00;;;;4951826;28;20196;-67
2022/03/12 03:25:31;;;;;;;9.30;5.07;;;-7.00;94.40;-8.00;97870.00;;;;4952361;29;20232;-67
2022/03/12 03:28:20;;;;;;;5.55;4.75;;;-7.00;95.00;-7.70;97877.00;;;;4942373;29;20215;-67
2022/03/12 03:31:09;;;;;;;8.70;5.30;;;-7.10;95.30;-7.70;97860.00;;;;4952032;28;20216;-66
2022/03/12 03:33:59;;;;;;;5.00;4.35;;;-7.10;95.50;-7.50;97871.00;;;;4951901;29;20307;-66
2022/03/12 03:36:49;;;;;;;7.57;4.72;;;-7.10;95.60;-7.30;97880.00;;;;4953376;28;20207;-66
2022/03/12 03:39:41;;;;;;;5.05;4.65;;;-7.10;95.70;-7.90;97878.00;;;;4947182;29;20200;-66
2022/03/12 03:42:29;;;;;;;10.68;6.32;;;-7.10;95.10;-7.80;97879.00;;;;4952458;28;20223;-66
2022/03/12 03:45:24;;;;;;;6.85;4.75;;;-7.20;95.20;-7.70;97886.00;;;;4952741;28;20235;-66
2022/03/12 03:48:15;;;;;;;1.58;1.48;;;-7.20;95.10;-8.10;97882.00;;;;4952668;29;20204;-66
2022/03/12 03:51:06;;;;;;;3.45;3.15;;;-7.20;95.10;-8.20;97890.00;;;;4951834;29;20234;-66
2022/03/12 03:53:55;;;;;;;8.23;4.28;;;-7.20;95.20;-8.20;97896.00;;;;4952344;29;20675;-66
2022/03/12 03:56:43;;;;;;;10.57;5.90;;;-7.30;95.60;-8.20;97884.00;;;;4952384;29;20212;-66
2022/03/12 03:59:32;;;;;;;4.72;4.25;;;-7.40;95.90;-8.20;97882.00;;;;4950719;29;20204;-66
2022/03/12 04:02:21;;;;;;;3.83;2.58;;;-7.40;96.10;-8.50;97878.00;;;;4951928;29;20204;-66
2022/03/12 04:05:10;;;;;;;5.00;4.35;;;-7.50;96.20;-8.10;97875.00;;;;4951446;29;20232;-66
2022/03/12 04:08:01;;;;;;;6.80;5.10;;;-7.60;96.40;-7.90;97887.00;;;;4952694;28;20224;-66
2022/03/12 04:10:50;;;;;;;5.85;4.97;;;-7.50;96.10;-8.00;97880.00;;;;4944055;29;20238;-66
2022/03/12 04:13:39;;;;;;;7.28;5.25;;;-7.40;96.20;-7.80;97892.00;;;;4952194;29;20208;-66
2022/03/12 04:16:28;;;;;;;7.18;4.05;;;-7.30;96.40;-7.70;97883.00;;;;4951980;28;20228;-66
2022/03/12 04:19:17;;;;;;;4.78;3.40;;;-7.30;95.80;-7.50;97882.00;;;;4951934;29;20200;-66
2022/03/12 04:22:07;;;;;;;4.20;3.92;;;-7.30;95.80;-7.40;97886.00;;;;4951523;29;20204;-66
2022/03/12 04:24:57;;;;;;;5.60;3.80;;;-7.20;95.10;-7.30;97891.00;;;;4951914;29;20652;-66
2022/03/12 04:27:46;;;;;;;4.20;2.92;;;-7.10;94.50;-7.70;97899.00;;;;4952102;28;20212;-66
2022/03/12 04:30:35;;;;;;;6.57;4.18;;;-7.10;94.20;-8.00;97889.00;;;;4950874;29;20203;-66
2022/03/12 04:33:24;;;;;;;4.25;3.25;;;-7.10;94.20;-8.30;97892.00;;;;4952572;28;20207;-66
2022/03/12 04:36:14;;;;;;;5.75;4.70;;;-7.30;94.70;-8.10;97900.00;;;;4943921;29;20782;-66
2022/03/12 04:39:04;;;;;;;7.60;5.30;;;-7.40;94.80;-8.10;97894.00;;;;4952147;28;20675;-66
2022/03/12 04:41:54;;;;;;;0.90;0.90;;;-7.40;95.00;-8.60;97889.00;;;;4950053;29;20207;-66
2022/03/12 04:44:43;;;;;;;5.43;4.90;;;-7.50;95.10;-8.30;97898.00;;;;4951940;28;20232;-66
2022/03/12 04:47:32;;;;;;;4.65;4.00;;;-7.60;95.50;-7.90;97905.00;;;;4952228;28;20207;-67
2022/03/12 04:50:22;;;;;;;3.58;3.28;;;-7.60;95.40;-7.70;97904.00;;;;4951473;29;20222;-67
2022/03/12 04:53:12;;;;;;;4.35;3.03;;;-7.40;94.90;-7.80;97891.00;;;;4951153;29;20211;-66
2022/03/12 04:56:01;;;;;;;3.67;3.38;;;-7.40;94.70;-8.40;97887.00;;;;4950731;29;20227;-66
2022/03/12 04:58:53;;;;;;;9.93;4.72;;;-7.40;94.90;-8.10;97904.00;;;;4951052;29;20208;-66
2022/03/12 05:01:41;;;;;;;4.40;3.95;;;-7.50;95.20;-8.10;97903.00;;;;4950327;29;20207;-66
2022/03/12 05:04:30;;;;;;;7.55;3.53;;;-7.60;95.30;-8.20;97896.00;;;;4951378;29;20223;-66
2022/03/12 05:07:20;;;;;;;5.25;4.05;;;-7.60;95.40;-8.40;97900.00;;;;4940315;28;20226;-66
2022/03/12 05:10:09;;;;;;;3.50;3.20;;;-7.70;95.40;-8.50;97896.00;;;;4951107;29;20901;-66
2022/03/12 05:13:00;;;;;;;7.03;4.45;;;-7.80;95.90;-8.30;97898.00;;;;4950157;29;20219;-66
2022/03/12 05:15:52;;;;;;;4.72;4.32;;;-7.80;95.90;-8.20;97905.00;;;;4950629;29;20255;-66
2022/03/12 05:18:41;;;;;;;8.60;4.85;;;-7.80;96.00;-8.30;97910.00;;;;4951289;29;20253;-66
2022/03/12 05:21:30;;;;;;;7.47;2.85;;;-7.80;95.90;-8.20;97914.00;;;;4950649;29;20220;-66
2022/03/12 05:24:18;;;;;;;3.65;3.25;;;-7.70;95.70;-8.50;97893.00;;;;4951820;28;20220;-66
2022/03/12 05:27:07;;;;;;;2.53;2.40;;;-7.70;95.50;-8.60;97909.00;;;;4940921;29;20200;-66
2022/03/12 05:29:56;;;;;;;3.25;2.97;;;-7.80;95.60;-9.00;97908.00;;;;4951190;29;20215;-66
2022/03/12 05:32:47;;;;;;;2.22;2.05;;;-7.90;95.70;-9.00;97908.00;;;;4950784;29;20203;-66
2022/03/12 05:35:41;;;;;;;3.35;2.20;;;-8.00;96.30;-8.70;97908.00;;;;4944075;28;20239;-66
2022/03/12 05:38:31;;;;;;;3.05;2.75;;;-8.00;96.80;-8.80;97916.00;;;;4942094;29;20243;-66
2022/03/12 05:41:20;;;;;;;2.95;2.65;;;-8.00;96.80;-8.60;97916.00;;;;4946383;29;20216;-66
2022/03/12 05:44:09;;;;;;;3.90;3.20;;;-8.00;96.70;-8.40;97915.00;;;;4940754;28;20224;-67
2022/03/12 05:46:58;;;;;;;1.33;1.27;;;-7.90;96.40;-8.60;97901.00;;;;4949756;28;20227;-67
2022/03/12 05:49:49;;;;;;;4.68;2.67;;;-7.80;96.10;-8.30;97921.00;;;;4948047;29;20239;-66
2022/03/12 05:52:39;;;;;;;7.57;4.70;;;-7.80;96.00;-8.20;97909.00;;;;4950509;29;20208;-66
2022/03/12 05:55:28;;;;;;;5.90;5.35;;;-7.70;96.10;-8.20;97914.00;;;;4950943;28;20231;-66
2022/03/12 05:58:21;;;;;;;3.85;3.55;;;-7.70;96.40;-7.90;97913.00;;;;4954804;28;20214;-66
2022/03/12 06:01:10;;;;;;;2.25;2.13;;;-7.60;95.90;-7.60;97912.00;;;;4955326;28;20691;-66
2022/03/12 06:04:00;;;;;;;4.18;3.70;;;-7.40;95.30;-7.50;97923.00;;;;4952638;28;20573;-66
2022/03/12 06:06:50;;;;;;;5.20;3.63;;;-7.30;94.70;-7.90;97915.00;;;;4956591;28;20750;-67
2022/03/12 06:09:39;;;;;;;4.00;3.25;;;-7.30;94.40;-7.90;97906.00;;;;4955243;28;20552;-66
2022/03/12 06:12:29;;;;;;;4.13;3.72;;;-7.20;94.70;-7.70;97920.00;;;;4947082;29;20208;-66
2022/03/12 06:15:20;;;;;;;1.60;1.50;;;-7.20;94.50;-7.90;97917.00;;;;4947947;29;20232;-66
2022/03/12 06:18:09;;;;;;;3.58;3.05;;;-7.20;94.30;-7.90;97917.00;;;;4956705;28;20223;-66
2022/03/12 06:20:58;;;;;;;4.93;3.08;;;-7.20;94.40;-7.60;97924.00;;;;4950396;28;20211;-66
2022/03/12 06:23:49;;;;;;;6.75;4.82;;;-7.10;94.50;-7.90;97916.00;;;;4956843;28;20593;-66
2022/03/12 06:26:39;;;;;;;3.67;2.88;;;-7.10;94.10;-8.00;97921.00;;;;4958013;28;20199;-66
2022/03/12 06:29:28;;;;;;;3.85;3.55;;;-7.10;94.10;-7.80;97916.00;;;;4960535;28;20210;-67
2022/03/12 06:32:16;;;;;;;3.35;3.03;;;-7.10;94.30;-7.50;97921.00;;;;4958871;28;20205;-66
2022/03/12 06:35:07;;;;;;;4.18;3.17;;;-7.00;94.30;-7.20;97920.00;;;;4959456;28;20224;-66
2022/03/12 06:37:56;;;;;;;1.00;1.00;;;-6.90;94.00;-7.40;97919.00;;;;4957287;28;20582;-66
2022/03/12 06:40:46;;;;;;;3.63;3.13;;;-6.80;93.70;-7.50;97921.00;;;;4964281;28;20220;-66
2022/03/12 06:43:42;;;;;;;10.48;4.40;;;-6.80;93.40;-7.20;97923.00;;;;4960380;28;20211;-66
2022/03/12 06:46:31;;;;;;;3.42;3.05;;;-6.70;93.40;-7.60;97922.00;;;;4956492;28;20207;-67
2022/03/12 06:49:20;;;;;;;5.15;3.30;;;-6.70;93.20;-7.30;97926.00;;;;4962752;28;20212;-67
2022/03/12 06:52:09;;;;;;;4.53;4.07;;;-6.60;93.10;-7.10;97929.00;;;;4959352;28;20199;-66
2022/03/12 06:54:58;;;;;;;5.65;4.93;;;-6.60;93.30;-6.80;97923.00;;;;4959760;28;20231;-68
2022/03/12 06:57:51;;;;;;;4.10;1.95;;;-6.40;93.30;-6.70;97939.00;;;;4958766;28;20220;-66
2022/03/12 07:00:41;;;;;;;6.20;5.47;;;-6.30;93.00;-6.70;97927.00;;;;4961415;28;20211;-67
2022/03/12 07:03:30;;;;;;;4.07;3.15;;;-6.20;92.60;-6.60;97928.00;;;;4957854;28;20588;-66
2022/03/12 07:06:19;;;;;;;8.13;4.45;;;-6.10;92.20;-6.50;97933.00;;;;4949621;28;20588;-66
2022/03/12 07:09:08;;;;;;;4.05;3.65;;;-6.00;91.90;-6.30;97946.00;;;;4951548;28;20589;-66
2022/03/12 07:11:58;;;;;;;2.38;2.28;;;-5.90;91.20;-6.10;97939.00;;;;4952570;28;20207;-66
2022/03/12 07:14:48;;;;;;;3.72;2.97;;;-5.80;91.10;-5.70;97947.00;;;;4961627;28;20230;-66
2022/03/12 07:17:37;;;;;;;2.75;2.55;;;-5.60;90.70;-5.50;97945.00;;;;4967551;28;20227;-66
2022/03/12 07:20:28;;;;;;;3.65;2.95;;;-5.40;90.70;-5.20;97949.00;;;;4960137;28;20713;-66
2022/03/12 07:23:17;;;;;;;4.13;3.30;;;-5.20;90.40;-4.80;97938.00;;;;4960332;28;20674;-66
2022/03/12 07:26:06;;;;;;;4.10;3.78;;;-4.90;89.80;-4.60;97954.00;;;;4957814;28;20428;-66
2022/03/12 07:28:54;;;;;;;9.67;4.33;;;-4.70;89.30;-4.20;97949.00;;;;4957710;28;20588;-66
2022/03/12 07:31:45;;;;;;;5.20;4.20;;;-4.50;88.90;-3.90;97961.00;;;;4962163;28;20431;-66
2022/03/12 07:34:34;;;;;;;4.57;3.80;;;-4.30;88.30;-3.50;97965.00;;;;4951520;29;20791;-67
2022/03/12 07:37:23;;;;;;;8.23;4.93;;;-4.00;88.10;-3.40;97954.00;;;;4955059;28;20467;-66
2022/03/12 07:40:15;;;;;;;6.33;4.97;;;-3.80;87.30;-3.20;97958.00;;;;4952872;28;20435;-67
2022/03/12 07:43:04;;;;;;;12.40;6.07;;;-3.50;87.40;-2.90;97952.00;;;;4952339;29;20432;-66
2022/03/12 07:45:53;;;;;;;7.67;5.40;;;-3.30;86.60;-2.90;97945.00;;;;4953274;28;20854;-67
2022/03/12 07:48:43;;;;;;;12.97;6.17;;;-3.10;86.70;-2.50;97957.00;;;;4952065;28;20518;-67
2022/03/12 07:51:33;;;;;;;11.23;6.90;;;-2.90;86.20;-2.30;97953.00;;;;4950168;28;20439;-67
2022/03/12 07:54:23;;;;;;;12.83;5.93;;;-2.70;86.50;-2.10;97957.00;;;;4957135;28;20959;-67
2022/03/12 07:57:13;;;;;;;8.70;6.23;;;-2.50;85.70;-1.80;97972.00;;;;4950799;29;20471;-67
2022/03/12 08:00:03;;;;;;;9.33;6.17;;;-2.30;85.20;-1.20;97973.00;;;;4952243;29;20432;-67
2022/03/12 08:02:52;;;;;;;10.93;6.10;;;-2.00;85.70;-1.20;97978.00;;;;4952875;28;20428;-67
2022/03/12 08:05:43;;;;;;;11.50;6.27;;;-1.70;85.00;-0.80;97978.00;;;;4941652;29;20818;-67
2022/03/12 08:08:32;;;;;;;8.40;5.73;;;-1.50;83.90;-0.40;97991.00;;;;4951065;28;20439;-67
2022/03/12 08:11:28;;;;;;;7.40;6.60;;;-1.20;82.50;-0.20;97979.00;;;;4936823;29;20449;-67
2022/03/12 08:14:17;;;;;;;6.20;5.60;;;-0.90;79.60;0.20;97986.00;;;;4948677;29;20444;-68
2022/03/12 08:17:06;;;;;;;7.13;6.03;;;-0.70;79.20;0.20;97994.00;;;;4948563;28;20479;-68
2022/03/12 08:19:56;;;;;;;11.00;6.07;;;-0.50;75.40;0.60;98001.00;;;;4946932;28;20515;-68
2022/03/12 08:22:47;;;;;;;8.67;5.27;;;-0.30;73.40;0.70;97986.00;;;;4940065;28;20447;-68
2022/03/12 08:25:36;;;;;;;6.73;5.50;;;0.00;72.00;1.20;97998.00;;;;4952222;28;20462;-68
2022/03/12 08:28:25;;;;;;;8.00;5.20;;;0.20;71.60;1.30;98002.00;;;;4953234;28;20427;-68
2022/03/12 08:31:14;;;;;;;6.83;5.50;;;0.40;69.70;1.30;97991.00;;;;4953156;28;20428;-68
2022/03/12 08:34:03;;;;;;;7.70;5.63;;;0.60;67.60;1.00;97984.00;;;;4949593;28;20440;-66
2022/03/12 08:36:52;;;;;;;9.50;5.63;;;0.70;65.40;1.40;97984.00;;;;4945945;28;20493;-66
2022/03/12 08:39:42;;;;;;;6.50;5.80;;;0.80;64.90;1.80;97991.00;;;;4948758;28;20424;-65
2022/03/12 08:42:31;;;;;;;8.53;5.73;;;1.00;64.40;2.10;97991.00;;;;4961304;28;20445;-65
2022/03/12 08:45:20;;;;;;;9.27;6.20;;;1.20;64.80;2.50;97994.00;;;;4954607;28;20456;-65
2022/03/12 08:48:10;;;;;;;8.50;6.57;;;1.40;64.30;2.70;97990.00;;;;4959206;28;20421;-65
2022/03/12 08:50:59;;;;;;;6.47;5.17;;;1.60;63.00;2.90;97990.00;;;;4960087;28;20431;-68
2022/03/12 08:53:49;;;;;;;10.23;5.50;;;1.80;62.00;2.80;97989.00;;;;4953968;28;20439;-66
2022/03/12 08:56:39;;;;;;;9.33;5.40;;;2.10;59.50;3.00;97998.00;;;;4961079;28;20435;-66
2022/03/12 08:59:29;;;;;;;6.97;5.10;;;2.20;58.00;3.30;97988.00;;;;4954960;28;20462;-66
2022/03/12 09:02:17;;;;;;;7.93;5.77;;;2.30;57.10;3.00;97997.00;;;;4959474;28;20424;-66
2022/03/12 09:05:09;;;;;;;7.00;5.20;;;2.40;56.30;2.30;97985.00;;;;4947716;28;20453;-66
2022/03/12 09:07:59;;;;;;;6.03;5.53;;;2.40;54.70;2.20;97978.00;;;;4959593;28;20424;-66
2022/03/12 09:10:48;;;;;;;8.30;5.33;;;2.40;54.10;2.90;97980.00;;;;4957704;28;20426;-66
2022/03/12 09:13:39;;;;;;;9.50;6.10;;;2.50;53.90;3.30;97974.00;;;;4960022;28;20427;-65
2022/03/12 09:16:28;;;;;;;9.37;5.97;;;2.50;54.50;3.30;97971.00;;;;4954268;28;20446;-65
2022/03/12 09:19:17;;;;;;;7.47;5.77;;;2.70;54.10;3.90;97971.00;;;;4956597;28;20427;-65
2022/03/12 09:22:06;;;;;;;7.83;5.77;;;2.80;54.30;4.00;97976.00;;;;4950684;29;20553;-68
2022/03/12 09:24:55;;;;;;;6.10;5.50;;;3.00;53.90;4.40;97968.00;;;;4951035;29;20444;-68
2022/03/12 09:27:45;;;;;;;6.80;5.50;;;3.20;54.10;4.20;97964.00;;;;4955716;28;20444;-65
2022/03/12 09:30:40;;;;;;;8.67;7.23;;;3.40;53.60;4.50;97965.00;;;;4961415;28;20785;-65
2022/03/12 09:33:29;;;;;;;7.37;6.20;;;3.60;53.50;4.80;97973.00;;;;4962857;28;20428;-66
2022/03/12 09:36:18;;;;;;;7.63;6.20;;;3.80;53.30;4.00;97965.00;;;;4964805;28;20427;-66
2022/03/12 09:39:10;;;;;;;7.40;5.90;;;4.00;50.60;4.60;97980.00;;;;4963386;28;20483;-66
2022/03/12 09:42:00;;;;;;;6.87;5.23;;;4.00;51.10;4.80;97971.00;;;;4960886;28;20446;-66
2022/03/12 09:44:48;;;;;;;6.80;6.10;;;4.10;51.30;4.60;97964.00;;;;4962529;28;20473;-66
2022/03/12 09:47:39;;;;;;;9.23;6.10;;;4.20;51.10;5.20;97960.00;;;;4962676;28;20427;-66
2022/03/12 09:50:28;;;;;;;9.17;6.30;;;4.30;51.00;5.80;97965.00;;;;4959505;28;20427;-66
2022/03/12 09:53:17;;;;;;;9.47;5.97;;;4.50;51.60;4.90;97951.00;;;;4960895;28;20415;-66
2022/03/12 09:56:06;;;;;;;8.97;6.47;;;4.60;49.90;5.40;97948.00;;;;4964635;28;20446;-66
2022/03/12 09:58:55;;;;;;;8.97;7.80;;;4.80;49.30;6.20;97955.00;;;;4958046;28;20468;-65
2022/03/12 10:01:44;;;;;;;9.40;6.40;;;4.90;49.80;6.10;97956.00;;;;4959373;28;20427;-66
2022/03/12 10:04:34;;;;;;;7.23;5.83;;;5.10;49.00;6.50;97949.00;;;;4960735;28;20216;-65
2022/03/12 10:07:23;;;;;;;7.97;5.53;;;5.30;48.70;6.70;97950.00;;;;4944511;29;20204;-65
2022/03/12 10:10:15;;;;;;;7.57;6.23;;;5.40;48.50;7.00;97954.00;;;;4956615;28;20204;-66
2022/03/12 10:13:04;;;;;;;7.33;6.07;;;5.70;49.10;7.30;97947.00;;;;4957218;28;20793;-66
2022/03/12 10:15:53;;;;;;;7.23;5.70;;;5.90;48.90;7.20;97945.00;;;;4950862;28;20235;-66
2022/03/12 10:18:42;;;;;;;7.70;4.23;;;6.10;47.00;5.40;97924.00;;;;4949042;29;20290;-66
2022/03/12 10:21:32;;;;;;;11.77;5.53;;;6.10;44.40;5.80;97917.00;;;;4952218;28;20219;-66
2022/03/12 10:24:21;;;;;;;8.23;5.77;;;5.90;44.10;7.00;97937.00;;;;4948986;28;20231;-66
2022/03/12 10:27:10;;;;;;;7.27;6.47;;;6.00;45.70;6.90;97930.00;;;;4953514;28;20210;-66
2022/03/12 10:29:59;;;;;;;7.10;6.20;;;6.10;45.60;7.00;97925.00;;;;4945743;29;20586;-66
2022/03/12 10:32:50;;;;;;;7.73;5.47;;;6.20;45.20;7.40;97921.00;;;;4953244;29;20215;-66
2022/03/12 10:35:40;;;;;;;7.63;5.60;;;6.30;45.30;7.40;97915.00;;;;4949757;28;20699;-66
2022/03/12 10:38:40;;;;;;;8.07;6.40;;;6.50;45.20;7.80;97906.00;;;;4946963;29;20225;-66
2022/03/12 10:41:31;;;;;;;8.60;5.77;;;6.70;45.50;7.20;97903.00;;;;4952841;28;20312;-66
2022/03/12 10:44:23;;;;;;;7.67;4.90;;;6.80;44.10;6.60;97891.00;;;;4971878;23;20232;-66
2022/03/12 10:47:20;;;;;;;6.13;4.83;;;6.90;44.00;7.40;97899.00;;;;4988249;28;20214;-65
2022/03/12 10:50:15;;;;;;;7.97;6.00;;;6.90;43.40;8.80;97896.00;;;;4992383;28;20202;-66
2022/03/12 10:53:06;;;;;;;7.27;5.17;;;7.10;43.80;7.10;97872.00;;;;4993811;28;20208;-67
2022/03/12 10:55:56;;;;;;;6.00;5.43;;;7.10;42.30;7.20;97879.00;;;;4977068;28;20582;-66
2022/03/12 10:58:45;;;;;;;5.70;5.03;;;7.10;42.30;8.40;97877.00;;;;4971752;28;20219;-66
2022/03/12 11:01:34;;;;;;;7.90;6.30;;;7.50;41.80;9.20;97878.00;;;;4968445;28;20206;-67
2022/03/12 11:04:26;;;;;;;6.90;5.33;;;7.80;42.50;9.50;97880.00;;;;4964149;28;20587;-66
2022/03/12 11:07:26;;;;;;;9.30;6.90;;;8.20;42.30;10.00;97880.00;;;;4976808;28;20202;-67
2022/03/12 11:10:23;;;;;;;7.50;6.37;;;8.70;42.60;8.80;97860.00;;;;4966168;28;20214;-67
2022/03/12 11:13:29;;;;;;;9.90;7.17;;;8.90;40.20;9.30;97864.00;;;;4971272;28;20203;-66
2022/03/12 11:16:22;;;;;;;8.07;6.20;;;9.00;40.40;10.10;97866.00;;;;4970579;28;20235;-67
2022/03/12 11:19:12;;;;;;;6.37;5.60;;;9.10;40.20;9.50;97857.00;;;;4972802;28;20210;-67
2022/03/12 11:22:01;;;;;;;11.27;7.10;;;9.30;40.20;9.10;97852.00;;;;4973677;28;20694;-67
2022/03/12 11:24:52;;;;;;;8.07;6.03;;;9.30;40.40;8.30;97846.00;;;;4979706;28;20219;-68
2022/03/12 11:27:41;;;;;;;8.30;6.03;;;9.50;40.00;8.60;97842.00;;;;4972082;28;20199;-67
2022/03/12 11:30:37;;;;;;;8.97;5.80;;;9.60;39.20;9.00;97840.00;;;;4972023;28;20218;-68
2022/03/12 11:33:28;;;;;;;6.07;5.30;;;9.50;38.40;10.40;97848.00;;;;4965878;28;20199;-68
2022/03/12 11:36:17;;;;;;;8.27;6.40;;;9.50;39.50;10.50;97856.00;;;;4964822;28;20250;-67
2022/03/12 11:39:06;;;;;;;8.53;6.13;;;9.70;38.70;10.20;97846.00;;;;4968961;28;20601;-67
2022/03/12 11:42:06;;;;;;;6.90;5.77;;;9.90;39.40;10.60;97850.00;;;;4971537;28;20203;-67
2022/03/12 11:44:58;;;;;;;6.60;6.00;;;10.10;38.40;11.30;97855.00;;;;4960317;28;20634;-67
2022/03/12 11:47:48;;;;;;;8.47;6.87;;;10.40;38.60;10.90;97843.00;;;;4968493;28;20214;-68
2022/03/12 11:50:37;;;;;;;7.73;6.63;;;10.70;38.80;8.10;97829.00;;;;4970005;28;20203;-68
2022/03/12 11:53:26;;;;;;;8.40;5.37;;;10.70;36.90;7.40;97813.00;;;;4984090;28;20206;-69
2022/03/12 11:56:30;;;;;;;11.60;6.43;;;10.10;36.50;9.80;97824.00;;;;4972772;28;20199;-68
2022/03/12 11:59:19;;;;;;;7.00;6.17;;;9.30;38.30;10.00;97831.00;;;;4959292;28;20579;-68
2022/03/12 12:02:30;;;;;;;9.80;6.33;;;9.50;38.80;8.50;97812.00;;;;4970260;28;20226;-68
2022/03/12 12:05:23;;;;;;;8.10;6.13;;;9.30;37.50;10.70;97825.00;;;;4968881;28;20227;-68
2022/03/12 12:08:13;;;;;;;6.67;5.80;;;9.50;38.80;9.30;97813.00;;;;4963288;28;20225;-69
2022/03/12 12:11:02;;;;;;;8.97;5.90;;;10.20;37.60;10.50;97823.00;;;;4961557;28;20209;-68
2022/03/12 12:13:51;;;;;;;7.03;6.33;;;10.10;37.70;10.40;97811.00;;;;4971007;28;20203;-68
2022/03/12 12:16:42;;;;;;;5.37;4.87;;;10.50;37.60;11.20;97813.00;;;;4979945;28;20205;-68
2022/03/12 12:19:32;;;;;;;10.83;6.27;;;11.30;37.90;9.90;97799.00;;;;4969600;28;20870;-68
2022/03/12 12:22:22;;;;;;;8.57;6.93;;;10.90;37.00;8.60;97798.00;;;;4963141;28;20210;-67
2022/03/12 12:25:12;;;;;;;6.63;5.73;;;10.50;36.80;9.10;97790.00;;;;4970903;28;20234;-69
2022/03/12 12:28:14;;;;;;;7.67;6.43;;;10.40;37.40;7.50;97774.00;;;;4975823;28;20198;-69
2022/03/12 12:31:02;;;;;;;7.53;6.67;;;9.70;37.10;7.70;97760.00;;;;4973473;28;20209;-69
2022/03/12 12:33:52;;;;;;;8.90;7.13;;;9.20;37.70;10.40;97783.00;;;;4966642;28;20199;-71
2022/03/12 12:36:59;;;;;;;10.67;7.03;;;9.50;38.60;10.00;97760.00;;;;4968504;28;20251;-69
2022/03/12 12:39:49;;;;;;;9.07;5.77;;;9.60;37.90;8.80;97748.00;;;;4967110;28;20226;-68